createdAt,value
2018-08-17T00:00:51.395Z,99486.22
2018-08-17T00:05:56.169Z,99486.23
2018-08-17T00:11:01.008Z,99490.02
2018-08-17T00:16:06.066Z,99481.52
2018-08-17T00:21:10.936Z,99478.51
2018-08-17T00:26:15.749Z,99473.53
2018-08-17T00:31:20.641Z,99472.80
2018-08-17T00:36:25.474Z,99471.58
2018-08-17T00:41:30.288Z,99466.63
2018-08-17T00:46:35.129Z,99466.09
2018-08-17T00:51:39.987Z,99469.48
2018-08-17T00:56:44.879Z,99464.80
2018-08-17T01:01:49.870Z,99461.76
2018-08-17T01:06:55.556Z,99455.77
2018-08-17T01:12:00.475Z,99464.13
2018-08-17T01:17:05.371Z,99463.89
2018-08-17T01:22:10.143Z,99460.84
2018-08-17T01:27:14.952Z,99455.58
2018-08-17T01:32:19.731Z,99458.53
2018-08-17T01:37:24.839Z,99463.17
2018-08-17T01:42:29.767Z,99464.76
2018-08-17T01:47:34.615Z,99465.15
2018-08-17T01:52:39.488Z,99463.84
2018-08-17T01:57:44.326Z,99459.50
2018-08-17T02:02:49.128Z,99464.51
2018-08-17T02:07:53.974Z,99465.09
2018-08-17T02:12:58.707Z,99470.72
2018-08-17T02:18:03.533Z,99468.71
2018-08-17T02:23:08.668Z,99470.46
2018-08-17T02:28:13.614Z,99473.70
2018-08-17T02:33:18.431Z,99472.31
2018-08-17T02:38:23.303Z,99470.52
2018-08-17T02:43:28.058Z,99473.69
2018-08-17T02:48:32.931Z,99470.30
2018-08-17T02:53:37.729Z,99468.61
2018-08-17T02:58:42.499Z,99467.41
2018-08-17T03:03:47.329Z,99469.57
2018-08-17T03:08:52.189Z,99466.55
2018-08-17T03:13:57.073Z,99470.29
2018-08-17T03:19:01.956Z,99474.36
2018-08-17T03:24:06.817Z,99472.43
2018-08-17T03:29:11.594Z,99483.22
2018-08-17T03:34:16.580Z,99473.92
2018-08-17T03:39:21.414Z,99483.96
2018-08-17T03:44:26.332Z,99480.39
2018-08-17T03:49:31.225Z,99493.16
2018-08-17T03:54:36.026Z,99500.17
2018-08-17T03:59:40.798Z,99493.94
2018-08-17T04:04:45.657Z,99506.80
2018-08-17T04:09:50.399Z,99512.95
2018-08-17T04:14:55.235Z,99513.73
2018-08-17T04:20:00.157Z,99523.47
2018-08-17T04:25:06.958Z,99519.21
2018-08-17T04:30:11.836Z,99523.44
2018-08-17T04:35:16.679Z,99528.73
2018-08-17T04:40:21.508Z,99524.11
2018-08-17T04:45:26.516Z,99529.38
2018-08-17T04:50:31.378Z,99526.46
2018-08-17T04:55:36.235Z,99528.20
2018-08-17T05:00:41.081Z,99530.38
2018-08-17T05:05:46.014Z,99533.62
2018-08-17T05:10:50.904Z,99539.98
2018-08-17T05:15:55.691Z,99531.87
2018-08-17T05:21:00.589Z,99531.96
2018-08-17T05:26:05.474Z,99535.28
2018-08-17T05:31:10.451Z,99531.58
2018-08-17T05:36:15.323Z,99538.64
2018-08-17T05:41:20.196Z,99544.99
2018-08-17T05:46:24.946Z,99546.62
2018-08-17T05:51:30.123Z,99560.07
2018-08-17T05:56:35.083Z,99548.24
2018-08-17T06:01:39.984Z,99545.73
2018-08-17T06:06:44.724Z,99553.69
2018-08-17T06:11:49.576Z,99556.80
2018-08-17T06:16:54.591Z,99558.70
2018-08-17T06:21:59.621Z,99560.34
2018-08-17T06:27:04.518Z,99556.27
2018-08-17T06:32:10.373Z,99557.19
2018-08-17T06:37:15.408Z,99554.51
2018-08-17T06:42:20.148Z,99562.12
2018-08-17T06:47:24.992Z,99570.88
2018-08-17T06:52:29.996Z,99572.53
2018-08-17T06:57:34.746Z,99567.95
2018-08-17T07:02:39.657Z,99573.77
2018-08-17T07:07:44.432Z,99568.23
2018-08-17T07:12:49.290Z,99572.53
2018-08-17T07:17:54.191Z,99572.61
2018-08-17T07:22:59.122Z,99571.23
2018-08-17T07:28:03.932Z,99573.58
2018-08-17T07:33:08.769Z,99578.75
2018-08-17T07:38:14.382Z,99571.66
2018-08-17T07:43:19.212Z,99575.70
2018-08-17T07:48:24.175Z,99576.03
2018-08-17T07:53:29.008Z,99584.50
2018-08-17T07:58:34.100Z,99581.77
2018-08-17T08:03:38.962Z,99587.98
2018-08-17T08:08:43.735Z,99589.61
2018-08-17T08:13:48.608Z,99590.28
2018-08-17T08:18:53.631Z,99590.22
2018-08-17T08:23:58.403Z,99589.76
2018-08-17T08:29:03.389Z,99599.61
2018-08-17T08:34:08.316Z,99597.59
2018-08-17T08:39:14.201Z,99600.20
2018-08-17T08:44:19.110Z,99598.20
2018-08-17T08:49:23.951Z,99601.21
2018-08-17T08:54:28.756Z,99597.23
2018-08-17T08:59:33.580Z,99607.59
2018-08-17T09:04:38.398Z,99598.13
2018-08-17T09:09:43.161Z,99602.50
2018-08-17T09:14:47.979Z,99596.08
2018-08-17T09:19:52.815Z,99589.34
2018-08-17T09:24:57.669Z,99582.00
2018-08-17T09:30:02.727Z,99581.72
2018-08-17T09:35:07.864Z,99585.00
2018-08-17T09:40:12.972Z,99578.05
2018-08-17T09:45:17.797Z,99572.87
2018-08-17T09:50:22.595Z,99567.16
2018-08-17T09:55:27.445Z,99556.38
2018-08-17T10:00:37.551Z,99562.14
2018-08-17T10:05:43.685Z,99558.74
2018-08-17T10:10:48.584Z,99554.34
2018-08-17T10:15:53.505Z,99550.63
2018-08-17T10:20:58.596Z,99545.05
2018-08-17T10:26:03.165Z,99541.22
2018-08-17T10:31:08.019Z,99525.19
2018-08-17T10:36:12.839Z,99525.17
2018-08-17T10:41:17.831Z,99525.57
2018-08-17T10:46:22.745Z,99518.17
2018-08-17T10:51:27.603Z,99519.16
2018-08-17T10:56:32.481Z,99515.51
2018-08-17T11:01:42.016Z,99516.08
2018-08-17T11:06:46.886Z,99512.58
2018-08-17T11:11:51.712Z,99512.70
2018-08-17T11:16:57.231Z,99507.94
2018-08-17T11:22:02.157Z,99502.04
2018-08-17T11:27:07.053Z,99500.62
2018-08-17T11:32:11.798Z,99500.47
2018-08-17T11:37:16.690Z,99499.60
2018-08-17T11:42:21.665Z,99492.22
2018-08-17T11:47:26.790Z,99491.22
2018-08-17T11:52:38.106Z,99490.14
2018-08-17T11:57:42.982Z,99490.06
2018-08-17T12:02:48.145Z,99486.56
2018-08-17T12:07:52.913Z,99487.98
2018-08-17T12:13:05.336Z,99480.91
2018-08-17T12:18:10.931Z,99473.28
2018-08-17T12:23:16.103Z,99470.84
2018-08-17T12:28:20.931Z,99475.11
2018-08-17T12:33:25.771Z,99473.91
2018-08-17T12:38:30.641Z,99478.70
2018-08-17T12:43:37.555Z,99474.11
2018-08-17T12:48:42.526Z,99472.30
2018-08-17T12:53:47.526Z,99483.60
2018-08-17T12:58:52.894Z,99476.61
2018-08-17T13:03:57.758Z,99480.28
2018-08-17T13:09:02.700Z,99470.81
2018-08-17T13:14:12.066Z,99470.45
2018-08-17T13:19:16.850Z,99463.83
2018-08-17T13:24:21.653Z,99459.41
2018-08-17T13:29:26.528Z,99455.72
2018-08-17T13:34:31.407Z,99455.27
2018-08-17T13:39:36.455Z,99445.23
2018-08-17T13:44:41.552Z,99445.19
2018-08-17T13:49:46.427Z,99443.55
2018-08-17T13:54:51.351Z,99438.61
2018-08-17T13:59:56.266Z,99437.39
2018-08-17T14:05:01.237Z,99429.27
2018-08-17T14:10:07.522Z,99435.19
2018-08-17T14:15:12.364Z,99425.19
2018-08-17T14:20:17.325Z,99419.18
2018-08-17T14:25:22.236Z,99417.09
2018-08-17T14:30:27.130Z,99411.45
2018-08-17T14:35:32.064Z,99409.59
2018-08-17T14:40:36.847Z,99403.52
2018-08-17T14:45:41.689Z,99401.78
2018-08-17T14:50:46.473Z,99404.17
2018-08-17T14:55:51.424Z,99406.45
2018-08-17T15:00:56.293Z,99414.56
2018-08-17T15:06:01.147Z,99415.44
2018-08-17T15:16:26.648Z,99420.36
2018-08-17T15:21:31.646Z,99422.06
2018-08-17T15:26:36.563Z,99428.95
2018-08-17T15:31:41.512Z,99418.34
2018-08-17T15:36:46.360Z,99417.06
2018-08-17T15:41:51.278Z,99422.04
2018-08-17T15:46:57.605Z,99414.48
2018-08-17T15:52:03.725Z,99416.55
2018-08-17T15:57:08.834Z,99415.63
2018-08-17T16:02:13.786Z,99427.29
2018-08-17T16:07:18.580Z,99426.16
2018-08-17T16:12:23.483Z,99433.61
2018-08-17T16:17:28.313Z,99435.70
2018-08-17T16:22:33.148Z,99441.61
2018-08-17T16:27:38.029Z,99439.61
2018-08-17T16:32:43.101Z,99452.79
2018-08-17T16:37:49.144Z,99451.39
2018-08-17T16:42:53.947Z,99457.27
2018-08-17T16:47:59.063Z,99462.75
2018-08-17T16:53:03.966Z,99476.44
2018-08-17T16:58:08.870Z,99477.78
2018-08-17T17:03:13.677Z,99474.38
2018-08-17T17:08:18.472Z,99476.33
2018-08-17T17:13:23.266Z,99482.96
2018-08-17T17:18:28.136Z,99483.61
2018-08-17T17:23:33.168Z,99488.70
2018-08-17T17:28:38.134Z,99493.78
2018-08-17T17:33:42.985Z,99493.09
2018-08-17T17:38:47.934Z,99503.16
2018-08-17T17:43:52.751Z,99505.23
2018-08-17T17:48:57.668Z,99514.59
2018-08-17T17:54:02.651Z,99529.07
2018-08-17T17:59:15.121Z,99543.63
2018-08-17T18:04:20.012Z,99551.45
2018-08-17T18:09:24.803Z,99561.48
2018-08-17T18:14:29.617Z,99573.08
2018-08-17T18:19:34.480Z,99580.97
2018-08-17T18:24:39.377Z,99592.84
2018-08-17T18:29:44.298Z,99609.63
2018-08-17T18:34:49.342Z,99618.73
2018-08-17T18:39:54.160Z,99629.31
2018-08-17T18:44:59.059Z,99630.70
2018-08-17T18:50:04.078Z,99637.36
2018-08-17T18:55:09.901Z,99644.13
2018-08-17T19:00:15.280Z,99644.77
2018-08-17T19:05:20.607Z,99651.31
2018-08-17T19:10:25.513Z,99655.95
2018-08-17T19:15:34.865Z,99660.35
2018-08-17T19:20:39.840Z,99674.23
2018-08-17T19:25:44.764Z,99689.80
2018-08-17T19:30:49.710Z,99694.81
2018-08-17T19:35:55.377Z,99704.87
2018-08-17T19:41:00.427Z,99705.28
2018-08-17T19:46:05.675Z,99720.13
2018-08-17T19:51:15.622Z,99745.29
2018-08-17T19:56:21.370Z,99752.44
2018-08-17T20:01:26.213Z,99765.36
2018-08-17T20:06:31.712Z,99771.38
2018-08-17T20:11:36.716Z,99787.94
2018-08-17T20:16:41.873Z,99797.67
2018-08-17T20:21:49.009Z,99813.11
2018-08-17T20:26:54.060Z,99817.86
2018-08-17T20:31:59.250Z,99825.63
2018-08-17T20:37:04.173Z,99826.95
2018-08-17T20:42:09.701Z,99822.43
2018-08-17T20:47:14.690Z,99835.09
2018-08-17T20:52:20.608Z,99842.41
2018-08-17T20:57:25.692Z,99838.12
2018-08-17T21:02:30.665Z,99835.09
2018-08-17T21:07:35.646Z,99844.14
2018-08-17T21:12:40.678Z,99859.39
2018-08-17T21:17:45.651Z,99872.78
2018-08-17T21:22:50.812Z,99888.28
2018-08-17T21:27:55.728Z,99893.73
2018-08-17T21:33:00.873Z,99896.20
2018-08-17T21:38:05.925Z,99894.08
2018-08-17T21:43:10.855Z,99889.28
2018-08-17T21:48:22.286Z,99879.44
2018-08-17T21:53:27.133Z,99894.87
2018-08-17T21:58:32.109Z,99889.27
2018-08-17T22:03:37.675Z,99886.40
2018-08-17T22:08:42.544Z,99889.23
2018-08-17T22:13:47.376Z,99895.59
2018-08-17T22:18:52.579Z,99893.52
2018-08-17T22:23:57.417Z,99887.61
2018-08-17T22:29:02.602Z,99890.03
2018-08-17T22:34:07.540Z,99885.36
2018-08-17T22:39:12.327Z,99899.94
2018-08-17T22:44:23.071Z,99906.27
2018-08-17T22:49:27.944Z,99911.08
2018-08-17T22:54:32.938Z,99919.08
2018-08-17T22:59:37.913Z,99912.22
2018-08-17T23:04:43.116Z,99933.20
2018-08-17T23:09:47.997Z,99937.68
2018-08-17T23:14:53.411Z,99946.15
2018-08-17T23:19:59.050Z,99943.52
2018-08-17T23:25:04.128Z,99944.91
2018-08-17T23:30:09.048Z,99945.14
2018-08-17T23:35:14.046Z,99946.79
2018-08-17T23:40:18.988Z,99942.16
2018-08-17T23:45:23.916Z,99942.73
2018-08-17T23:50:28.841Z,99941.36
2018-08-17T23:55:33.694Z,99951.53
